createdAt,value
2023-05-22T00:00:28.680Z,45.94
2023-05-22T00:02:57.748Z,45.50
2023-05-22T00:05:25.402Z,45.63
2023-05-22T00:07:52.500Z,45.36
2023-05-22T00:10:19.608Z,45.92
2023-05-22T00:12:46.677Z,45.80
2023-05-22T00:15:13.831Z,45.39
2023-05-22T00:17:41.248Z,45.84
2023-05-22T00:20:10.971Z,45.85
2023-05-22T00:22:38.180Z,46.21
2023-05-22T00:25:05.830Z,46.04
2023-05-22T00:27:33.684Z,45.91
2023-05-22T00:30:01.492Z,45.95
2023-05-22T00:32:28.926Z,46.30
2023-05-22T00:34:56.164Z,46.01
2023-05-22T00:37:23.324Z,45.99
2023-05-22T00:39:50.614Z,46.23
2023-05-22T00:42:18.631Z,46.22
2023-05-22T00:44:46.096Z,46.43
2023-05-22T00:48:45.026Z,49.74
2023-05-22T00:51:12.236Z,48.18
2023-05-22T00:53:39.406Z,48.20
2023-05-22T00:56:07.401Z,48.25
2023-05-22T00:58:34.451Z,47.67
2023-05-22T01:01:02.447Z,47.66
2023-05-22T01:03:30.259Z,47.55
2023-05-22T01:05:57.709Z,47.20
2023-05-22T01:08:24.832Z,47.63
2023-05-22T01:11:08.799Z,47.58
2023-05-22T01:13:39.046Z,47.09
2023-05-22T01:16:31.071Z,46.95
2023-05-22T01:19:18.215Z,46.43
2023-05-22T01:22:25.319Z,46.93
2023-05-22T01:24:52.450Z,47.29
2023-05-22T01:27:28.724Z,47.17
2023-05-22T01:30:34.457Z,47.28
2023-05-22T01:33:01.676Z,47.58
2023-05-22T01:35:29.132Z,46.92
2023-05-22T01:37:56.577Z,48.55
2023-05-22T01:40:24.000Z,49.39
2023-05-22T01:42:51.288Z,49.25
2023-05-22T01:45:18.404Z,48.86
2023-05-22T01:47:45.746Z,48.61
2023-05-22T01:50:14.659Z,48.48
2023-05-22T01:53:07.695Z,48.58
2023-05-22T01:55:43.227Z,48.79
2023-05-22T01:58:33.513Z,48.37
2023-05-22T02:01:01.632Z,48.21
2023-05-22T02:03:31.654Z,47.51
2023-05-22T02:06:00.559Z,48.00
2023-05-22T02:08:28.057Z,48.25
2023-05-22T02:10:55.440Z,48.07
2023-05-22T02:13:23.703Z,48.48
2023-05-22T02:15:51.364Z,49.25
2023-05-22T02:18:18.494Z,50.07
2023-05-22T02:20:48.632Z,49.96
2023-05-22T02:23:15.843Z,50.19
2023-05-22T02:25:43.000Z,50.25
2023-05-22T02:28:10.783Z,49.83
2023-05-22T02:30:37.929Z,49.16
2023-05-22T02:33:09.574Z,49.22
2023-05-22T02:35:36.783Z,49.22
2023-05-22T02:38:04.998Z,49.13
2023-05-22T02:40:32.137Z,49.52
2023-05-22T02:42:59.387Z,49.52
2023-05-22T02:45:26.817Z,51.14
2023-05-22T02:47:53.965Z,51.53
2023-05-22T02:50:22.091Z,51.14
2023-05-22T02:52:50.730Z,52.12
2023-05-22T02:55:17.855Z,51.82
2023-05-22T02:57:45.043Z,51.46
2023-05-22T03:00:12.575Z,50.97
2023-05-22T03:02:39.898Z,50.99
2023-05-22T03:05:08.409Z,51.09
2023-05-22T03:07:35.556Z,51.30
2023-05-22T03:10:02.713Z,52.62
2023-05-22T03:12:30.245Z,53.56
2023-05-22T03:14:57.680Z,53.03
2023-05-22T03:17:25.106Z,53.29
2023-05-22T03:19:52.299Z,53.12
2023-05-22T03:22:19.590Z,52.70
2023-05-22T03:24:46.788Z,52.12
2023-05-22T03:27:17.482Z,52.14
2023-05-22T03:29:46.585Z,52.08
2023-05-22T03:32:14.174Z,52.26
2023-05-22T03:34:42.205Z,52.95
2023-05-22T03:37:10.120Z,54.24
2023-05-22T03:39:39.606Z,54.58
2023-05-22T03:42:39.258Z,53.97
2023-05-22T03:45:07.779Z,53.12
2023-05-22T03:47:34.880Z,52.83
2023-05-22T03:50:02.808Z,52.21
2023-05-22T03:52:29.947Z,52.80
2023-05-22T03:54:57.256Z,52.04
2023-05-22T03:57:24.390Z,51.99
2023-05-22T03:59:51.582Z,51.61
2023-05-22T04:02:18.765Z,53.48
2023-05-22T04:04:48.954Z,54.07
2023-05-22T04:07:18.660Z,53.11
2023-05-22T04:09:45.935Z,52.16
2023-05-22T04:12:13.067Z,51.29
2023-05-22T04:14:40.264Z,50.61
2023-05-22T04:17:07.958Z,50.53
2023-05-22T04:19:35.386Z,50.79
2023-05-22T04:22:02.532Z,50.69
2023-05-22T04:24:29.657Z,50.75
2023-05-22T04:27:00.678Z,51.14
2023-05-22T04:29:28.829Z,52.42
2023-05-22T04:31:56.066Z,52.13
2023-05-22T04:34:24.249Z,50.45
2023-05-22T04:36:51.415Z,49.53
2023-05-22T04:39:18.608Z,49.36
2023-05-22T04:41:46.155Z,49.27
2023-05-22T04:44:14.451Z,49.03
2023-05-22T04:46:42.493Z,48.75
2023-05-22T04:49:10.668Z,48.76
2023-05-22T04:51:37.840Z,47.90
2023-05-22T04:54:05.086Z,47.42
2023-05-22T04:56:36.795Z,47.08
2023-05-22T04:59:05.774Z,46.72
2023-05-22T05:01:35.356Z,46.77
2023-05-22T05:04:03.913Z,45.81
2023-05-22T05:06:31.107Z,45.75
2023-05-22T05:08:59.136Z,45.26
2023-05-22T05:11:26.232Z,45.39
2023-05-22T05:13:53.353Z,45.20
2023-05-22T05:16:20.733Z,44.88
2023-05-22T05:18:47.868Z,44.52
2023-05-22T05:21:15.398Z,44.44
2023-05-22T05:23:43.490Z,44.20
2023-05-22T05:26:14.481Z,43.76
2023-05-22T05:28:41.956Z,43.24
2023-05-22T05:31:10.289Z,43.24
2023-05-22T05:33:52.310Z,42.92
2023-05-22T05:36:49.487Z,42.27
2023-05-22T05:39:17.089Z,41.81
2023-05-22T05:41:44.164Z,41.86
2023-05-22T05:44:11.566Z,41.40
2023-05-22T05:46:38.772Z,40.78
2023-05-22T05:49:11.980Z,41.43
2023-05-22T05:51:41.214Z,41.01
2023-05-22T05:54:08.664Z,40.23
2023-05-22T05:56:36.878Z,40.36
2023-05-22T05:59:04.680Z,40.10
2023-05-22T06:01:44.678Z,40.23
2023-05-22T06:04:16.917Z,40.29
2023-05-22T06:06:45.686Z,39.76
2023-05-22T06:09:15.690Z,39.90
2023-05-22T06:12:07.001Z,39.89
2023-05-22T06:14:34.200Z,39.81
2023-05-22T06:17:01.432Z,39.79
2023-05-22T06:19:28.791Z,39.68
2023-05-22T06:21:56.298Z,39.50
2023-05-22T06:24:23.833Z,38.71
2023-05-22T06:26:51.892Z,38.73
2023-05-22T06:29:19.234Z,38.85
2023-05-22T06:31:46.992Z,38.56
2023-05-22T06:34:16.015Z,38.17
2023-05-22T06:36:43.222Z,38.32
2023-05-22T06:39:10.653Z,38.26
2023-05-22T06:41:58.096Z,38.10
2023-05-22T06:44:25.916Z,38.15
2023-05-22T06:46:55.282Z,38.05
2023-05-22T06:49:24.695Z,38.21
2023-05-22T06:51:53.901Z,38.22
2023-05-22T06:54:21.763Z,37.90
2023-05-22T06:56:51.621Z,37.67
2023-05-22T06:59:18.959Z,37.42
2023-05-22T07:01:46.312Z,37.57
2023-05-22T07:04:17.586Z,37.46
2023-05-22T07:06:56.089Z,36.99
2023-05-22T07:09:24.140Z,36.59
2023-05-22T07:11:51.464Z,36.72
2023-05-22T07:14:18.543Z,36.47
2023-05-22T07:16:46.196Z,35.74
2023-05-22T07:19:15.634Z,35.73
2023-05-22T07:21:42.927Z,35.65
2023-05-22T07:24:11.321Z,35.36
2023-05-22T07:26:41.322Z,34.68
2023-05-22T07:29:09.544Z,35.21
2023-05-22T07:31:39.323Z,35.61
2023-05-22T07:34:06.591Z,35.00
2023-05-22T07:36:35.118Z,35.59
2023-05-22T07:39:02.994Z,35.52
2023-05-22T07:41:32.677Z,35.47
2023-05-22T07:44:00.446Z,35.02
2023-05-22T07:46:31.666Z,35.03
2023-05-22T07:49:06.350Z,34.32
2023-05-22T07:51:33.831Z,34.88
2023-05-22T07:54:01.225Z,34.38
2023-05-22T07:56:28.349Z,33.84
2023-05-22T07:58:56.438Z,33.62
2023-05-22T08:01:23.722Z,33.69
2023-05-22T08:03:51.356Z,33.26
2023-05-22T08:06:18.750Z,32.74
2023-05-22T08:08:45.923Z,32.90
2023-05-22T08:11:13.145Z,32.82
2023-05-22T08:13:40.349Z,32.86
2023-05-22T08:16:08.120Z,33.17
2023-05-22T08:18:35.323Z,33.29
2023-05-22T08:21:02.506Z,32.23
2023-05-22T08:23:30.210Z,32.26
2023-05-22T08:25:58.411Z,32.48
2023-05-22T08:28:25.938Z,32.16
2023-05-22T08:30:55.150Z,32.22
2023-05-22T08:33:22.509Z,31.99
2023-05-22T08:35:49.692Z,31.65
2023-05-22T08:38:17.783Z,31.51
2023-05-22T08:40:47.607Z,31.11
2023-05-22T08:43:15.799Z,31.57
2023-05-22T08:45:44.468Z,31.32
2023-05-22T08:48:13.366Z,31.35
2023-05-22T08:50:44.035Z,31.08
2023-05-22T08:53:12.694Z,31.07
2023-05-22T08:55:39.984Z,31.03
2023-05-22T08:58:07.343Z,30.69
2023-05-22T09:00:34.668Z,30.70
2023-05-22T09:03:02.045Z,30.60
2023-05-22T09:05:29.312Z,30.14
2023-05-22T09:08:02.658Z,30.35
2023-05-22T09:10:32.710Z,29.87
2023-05-22T09:13:09.175Z,30.07
2023-05-22T09:15:37.303Z,29.73
2023-05-22T09:18:05.203Z,29.97
2023-05-22T09:20:36.193Z,29.33
2023-05-22T09:23:20.501Z,29.00
2023-05-22T09:25:47.958Z,29.31
2023-05-22T09:28:15.336Z,29.26
2023-05-22T09:30:42.855Z,29.04
2023-05-22T09:33:10.505Z,28.64
2023-05-22T09:35:39.725Z,28.58
2023-05-22T09:38:07.173Z,28.43
2023-05-22T09:40:35.356Z,28.89
2023-05-22T09:43:04.492Z,28.90
2023-05-22T09:45:31.801Z,28.52
2023-05-22T09:47:58.893Z,28.36
2023-05-22T09:50:26.282Z,28.71
2023-05-22T09:52:53.592Z,28.48
2023-05-22T09:55:21.748Z,27.98
2023-05-22T09:57:50.356Z,28.31
2023-05-22T10:00:18.689Z,27.94
2023-05-22T10:02:47.858Z,28.06
2023-05-22T10:05:21.853Z,27.75
2023-05-22T10:07:50.689Z,27.94
2023-05-22T10:10:22.401Z,27.73
2023-05-22T10:12:54.195Z,27.98
2023-05-22T10:15:21.566Z,27.64
2023-05-22T10:17:49.323Z,27.75
2023-05-22T10:20:17.339Z,27.66
2023-05-22T10:22:44.791Z,27.39
2023-05-22T10:25:11.974Z,27.26
2023-05-22T10:27:39.552Z,27.41
2023-05-22T10:30:29.697Z,27.23
2023-05-22T10:33:25.223Z,26.69
2023-05-22T10:35:55.655Z,26.45
2023-05-22T10:38:42.010Z,26.52
2023-05-22T10:41:09.330Z,25.97
2023-05-22T10:43:45.468Z,25.60
2023-05-22T10:46:13.059Z,26.00
2023-05-22T10:48:41.432Z,25.80
2023-05-22T10:51:09.132Z,25.47
2023-05-22T10:53:36.258Z,25.87
2023-05-22T10:56:14.065Z,26.00
2023-05-22T10:58:45.946Z,25.61
2023-05-22T11:01:20.244Z,25.51
2023-05-22T11:04:12.910Z,25.61
2023-05-22T11:06:42.399Z,25.66
2023-05-22T11:09:19.940Z,24.55
2023-05-22T11:11:47.323Z,25.47
2023-05-22T11:14:19.556Z,25.59
2023-05-22T11:16:46.842Z,25.50
2023-05-22T11:19:23.164Z,25.68
2023-05-22T11:21:50.819Z,25.17
2023-05-22T11:24:18.442Z,25.31
2023-05-22T11:26:45.926Z,25.52
2023-05-22T11:29:13.318Z,25.61
2023-05-22T11:31:40.784Z,25.29
2023-05-22T11:34:08.077Z,25.18
2023-05-22T11:36:35.338Z,25.01
2023-05-22T11:39:02.663Z,25.52
2023-05-22T11:41:36.208Z,25.08
2023-05-22T11:44:03.351Z,24.91
2023-05-22T11:46:30.641Z,25.14
2023-05-22T11:48:57.768Z,24.62
2023-05-22T11:51:25.031Z,24.42
2023-05-22T11:53:52.673Z,24.58
2023-05-22T11:56:23.289Z,24.58
2023-05-22T11:58:52.200Z,24.38
2023-05-22T12:01:19.918Z,24.16
2023-05-22T12:03:47.541Z,24.51
2023-05-22T12:06:17.264Z,24.49
2023-05-22T12:08:45.622Z,24.33
2023-05-22T12:11:13.395Z,23.97
2023-05-22T12:13:41.684Z,24.14
2023-05-22T12:16:25.455Z,24.20
2023-05-22T12:18:54.381Z,24.00
2023-05-22T12:21:22.168Z,24.06
2023-05-22T12:23:50.265Z,23.83
2023-05-22T12:26:17.984Z,23.58
2023-05-22T12:28:45.668Z,23.72
2023-05-22T12:31:21.212Z,23.48
2023-05-22T12:33:48.987Z,23.74
2023-05-22T12:36:16.552Z,23.75
2023-05-22T12:38:44.558Z,23.57
2023-05-22T12:41:12.440Z,23.56
2023-05-22T12:43:40.250Z,23.24
2023-05-22T12:46:07.856Z,23.60
2023-05-22T12:48:35.559Z,23.62
2023-05-22T12:51:03.132Z,23.58
2023-05-22T12:53:31.303Z,22.94
2023-05-22T12:55:59.190Z,23.01
2023-05-22T12:58:26.879Z,22.90
2023-05-22T13:00:54.548Z,22.92
2023-05-22T13:05:11.785Z,23.70
2023-05-22T13:07:39.601Z,23.43
2023-05-22T13:10:08.458Z,23.12
2023-05-22T13:12:36.257Z,22.70
2023-05-22T13:15:04.667Z,23.22
2023-05-22T13:17:32.467Z,22.48
2023-05-22T13:20:00.253Z,22.94
2023-05-22T13:22:27.836Z,22.35
2023-05-22T13:24:56.034Z,22.71
2023-05-22T13:27:23.697Z,21.94
2023-05-22T13:29:52.212Z,22.55
2023-05-22T13:32:20.168Z,22.57
2023-05-22T13:34:47.930Z,22.60
2023-05-22T13:37:15.887Z,22.45
2023-05-22T13:39:43.528Z,22.48
2023-05-22T13:42:11.272Z,21.95
2023-05-22T13:44:39.062Z,22.40
2023-05-22T13:47:06.862Z,22.25
2023-05-22T13:49:34.660Z,22.67
2023-05-22T13:52:02.311Z,22.54
2023-05-22T13:54:30.001Z,22.22
2023-05-22T13:56:58.023Z,22.19
2023-05-22T13:59:26.181Z,22.27
2023-05-22T14:01:53.830Z,22.03
2023-05-22T14:04:21.602Z,21.85
2023-05-22T14:06:49.480Z,21.69
2023-05-22T14:09:17.744Z,21.71
2023-05-22T14:11:45.445Z,21.32
2023-05-22T14:14:13.006Z,21.85
2023-05-22T14:16:40.718Z,22.07
2023-05-22T14:19:08.624Z,22.56
2023-05-22T14:21:36.970Z,22.79
2023-05-22T14:24:05.349Z,22.56
2023-05-22T14:26:33.119Z,22.35
2023-05-22T14:29:00.881Z,22.25
2023-05-22T14:31:31.442Z,22.07
2023-05-22T14:33:59.313Z,21.82
2023-05-22T14:36:27.001Z,22.61
2023-05-22T14:38:55.508Z,22.24
2023-05-22T14:41:23.096Z,22.51
2023-05-22T14:43:50.808Z,22.79
2023-05-22T14:46:18.521Z,22.85
2023-05-22T14:48:46.196Z,22.85
2023-05-22T14:51:13.860Z,22.68
2023-05-22T14:53:41.553Z,21.94
2023-05-22T14:56:09.316Z,21.91
2023-05-22T14:58:37.056Z,21.23
2023-05-22T15:01:04.695Z,21.74
2023-05-22T15:03:32.201Z,20.29
2023-05-22T15:05:59.950Z,20.74
2023-05-22T15:08:27.616Z,21.01
2023-05-22T15:10:55.173Z,19.46
2023-05-22T15:13:22.789Z,19.39
2023-05-22T15:15:50.242Z,19.61
2023-05-22T15:18:17.726Z,20.15
2023-05-22T15:20:45.643Z,19.95
2023-05-22T15:23:13.942Z,19.74
2023-05-22T15:25:43.048Z,19.89
2023-05-22T15:28:10.692Z,19.36
2023-05-22T15:30:39.274Z,19.35
2023-05-22T15:33:07.293Z,18.84
2023-05-22T15:35:35.329Z,19.10
2023-05-22T15:38:03.419Z,19.12
2023-05-22T15:40:31.237Z,18.73
2023-05-22T15:43:02.035Z,18.29
2023-05-22T15:45:30.791Z,18.53
2023-05-22T15:47:58.736Z,18.25
2023-05-22T15:50:26.593Z,18.73
2023-05-22T15:52:54.170Z,18.34
2023-05-22T15:55:21.962Z,18.77
2023-05-22T15:57:49.724Z,18.75
2023-05-22T16:00:18.966Z,18.82
2023-05-22T16:02:49.100Z,18.32
2023-05-22T16:05:16.810Z,18.66
2023-05-22T16:07:44.236Z,18.96
2023-05-22T16:10:12.014Z,19.41
2023-05-22T16:12:39.859Z,19.80
2023-05-22T16:15:08.230Z,20.73
2023-05-22T16:17:35.846Z,20.97
2023-05-22T16:20:05.636Z,21.25
2023-05-22T16:22:47.180Z,21.46
2023-05-22T16:25:17.085Z,21.77
2023-05-22T16:27:44.761Z,21.27
2023-05-22T16:30:15.028Z,21.18
2023-05-22T16:32:43.488Z,21.21
2023-05-22T16:35:11.748Z,21.32
2023-05-22T16:37:40.388Z,21.78
2023-05-22T16:40:11.589Z,22.39
2023-05-22T16:42:39.230Z,22.39
2023-05-22T16:45:09.264Z,22.34
2023-05-22T16:47:37.353Z,22.48
2023-05-22T16:50:05.911Z,23.06
2023-05-22T16:52:33.566Z,22.88
2023-05-22T16:55:01.763Z,24.03
2023-05-22T16:57:29.423Z,23.82
2023-05-22T16:59:57.883Z,24.41
2023-05-22T17:02:26.130Z,24.87
2023-05-22T17:04:54.610Z,24.94
2023-05-22T17:07:22.326Z,25.15
2023-05-22T17:09:50.031Z,25.13
2023-05-22T17:12:17.469Z,25.48
2023-05-22T17:14:45.391Z,25.96
2023-05-22T17:17:13.057Z,25.92
2023-05-22T17:19:41.093Z,25.99
2023-05-22T17:22:09.144Z,26.35
2023-05-22T17:24:36.812Z,26.68
2023-05-22T17:27:06.805Z,27.36
2023-05-22T17:29:34.493Z,26.87
2023-05-22T17:32:02.584Z,26.79
2023-05-22T17:34:30.333Z,27.19
2023-05-22T17:36:59.425Z,27.55
2023-05-22T17:39:27.194Z,27.44
2023-05-22T17:41:54.816Z,28.16
2023-05-22T17:44:22.541Z,28.09
2023-05-22T17:46:50.063Z,28.30
2023-05-22T17:49:18.059Z,28.58
2023-05-22T17:51:45.930Z,28.98
2023-05-22T17:54:14.995Z,28.86
2023-05-22T17:56:42.642Z,29.53
2023-05-22T17:59:10.329Z,29.25
2023-05-22T18:01:38.121Z,29.33
2023-05-22T18:04:06.523Z,29.76
2023-05-22T18:06:34.393Z,29.67
2023-05-22T18:09:04.643Z,29.89
2023-05-22T18:11:32.418Z,30.51
2023-05-22T18:14:00.051Z,30.79
2023-05-22T18:16:28.011Z,30.82
2023-05-22T18:18:56.010Z,31.27
2023-05-22T18:21:23.472Z,31.52
2023-05-22T18:23:51.218Z,31.64
2023-05-22T18:26:18.837Z,31.65
2023-05-22T18:28:48.490Z,32.10
2023-05-22T18:31:16.895Z,31.69
2023-05-22T18:33:45.332Z,31.88
2023-05-22T18:36:13.162Z,31.95
2023-05-22T18:38:41.228Z,31.74
2023-05-22T18:41:08.962Z,31.90
2023-05-22T18:43:36.742Z,32.15
2023-05-22T18:46:04.469Z,32.54
2023-05-22T18:48:33.321Z,32.55
2023-05-22T18:51:01.105Z,32.45
2023-05-22T18:53:28.899Z,33.14
2023-05-22T18:55:56.587Z,33.58
2023-05-22T18:58:24.309Z,33.65
2023-05-22T19:00:54.512Z,33.59
2023-05-22T19:03:22.693Z,33.58
2023-05-22T19:05:50.542Z,33.56
2023-05-22T19:08:18.293Z,34.42
2023-05-22T19:10:45.939Z,34.61
2023-05-22T19:13:13.592Z,33.94
2023-05-22T19:15:41.335Z,34.35
2023-05-22T19:18:09.247Z,34.46
2023-05-22T19:20:37.148Z,34.23
2023-05-22T19:23:06.726Z,35.12
2023-05-22T19:25:34.426Z,34.62
2023-05-22T19:28:02.071Z,34.38
2023-05-22T19:30:29.839Z,34.72
2023-05-22T19:32:57.749Z,34.63
2023-05-22T19:35:25.294Z,34.85
2023-05-22T19:37:53.092Z,35.33
2023-05-22T19:40:21.027Z,35.73
2023-05-22T19:42:48.691Z,35.04
2023-05-22T19:45:17.709Z,35.29
2023-05-22T19:47:45.350Z,35.43
2023-05-22T19:50:13.067Z,35.17
2023-05-22T19:52:40.916Z,35.87
2023-05-22T19:55:09.850Z,36.02
2023-05-22T19:57:37.771Z,37.45
2023-05-22T20:00:07.802Z,36.71
2023-05-22T20:02:35.606Z,37.34
2023-05-22T20:05:03.403Z,36.67
2023-05-22T20:07:31.223Z,36.66
2023-05-22T20:09:59.121Z,36.49
2023-05-22T20:12:26.958Z,36.07
2023-05-22T20:14:54.611Z,36.13
2023-05-22T20:17:22.920Z,36.37
2023-05-22T20:19:50.722Z,36.46
2023-05-22T20:22:18.481Z,36.43
2023-05-22T20:24:47.354Z,36.53
2023-05-22T20:27:15.018Z,36.57
2023-05-22T20:29:42.717Z,36.22
2023-05-22T20:32:10.976Z,36.17
2023-05-22T20:34:40.211Z,36.34
2023-05-22T20:37:09.255Z,36.26
2023-05-22T20:39:36.973Z,36.91
2023-05-22T20:42:04.948Z,37.13
2023-05-22T20:44:32.735Z,37.29
2023-05-22T20:47:01.430Z,37.14
2023-05-22T20:49:30.157Z,36.90
2023-05-22T20:52:00.204Z,37.34
2023-05-22T20:54:34.101Z,37.69
2023-05-22T20:57:02.292Z,37.87
2023-05-22T20:59:29.935Z,37.75
2023-05-22T21:01:58.027Z,38.20
2023-05-22T21:04:26.305Z,38.27
2023-05-22T21:06:54.003Z,38.46
2023-05-22T21:09:21.663Z,38.84
2023-05-22T21:11:49.278Z,38.60
2023-05-22T21:14:17.520Z,38.61
2023-05-22T21:16:45.576Z,39.15
2023-05-22T21:19:13.218Z,39.13
2023-05-22T21:21:41.970Z,39.66
2023-05-22T21:24:10.046Z,39.75
2023-05-22T21:26:37.801Z,39.85
2023-05-22T21:29:05.488Z,39.43
2023-05-22T21:31:35.375Z,39.43
2023-05-22T21:34:03.754Z,39.26
2023-05-22T21:36:32.017Z,39.76
2023-05-22T21:39:00.600Z,40.79
2023-05-22T21:41:28.681Z,40.20
2023-05-22T21:43:57.363Z,40.27
2023-05-22T21:46:25.231Z,40.65
2023-05-22T21:48:54.013Z,40.56
2023-05-22T21:51:21.665Z,40.52
2023-05-22T21:53:49.279Z,40.63
2023-05-22T21:56:17.411Z,40.76
2023-05-22T21:58:45.394Z,40.84
2023-05-22T22:01:13.034Z,40.79
2023-05-22T22:03:40.722Z,41.54
2023-05-22T22:06:08.490Z,41.50
2023-05-22T22:08:36.341Z,40.68
2023-05-22T22:11:04.413Z,40.97
2023-05-22T22:13:32.769Z,41.65
2023-05-22T22:16:00.649Z,41.15
2023-05-22T22:18:28.295Z,41.15
2023-05-22T22:20:56.222Z,41.82
2023-05-22T22:23:24.265Z,41.28
2023-05-22T22:25:51.928Z,41.44
2023-05-22T22:28:19.520Z,41.43
2023-05-22T22:30:48.050Z,41.73
2023-05-22T22:33:15.696Z,42.02
2023-05-22T22:35:43.569Z,41.87
2023-05-22T22:38:11.327Z,41.86
2023-05-22T22:40:39.195Z,42.22
2023-05-22T22:43:07.044Z,41.79
2023-05-22T22:45:34.780Z,41.90
2023-05-22T22:48:03.659Z,41.80
2023-05-22T22:50:32.413Z,41.67
2023-05-22T22:53:00.204Z,42.04
2023-05-22T22:55:28.051Z,42.25
2023-05-22T22:57:55.819Z,42.21
2023-05-22T23:00:23.945Z,42.53
2023-05-22T23:02:51.729Z,42.56
2023-05-22T23:05:20.627Z,42.55
2023-05-22T23:07:48.456Z,43.22
2023-05-22T23:10:16.032Z,42.56
2023-05-22T23:12:43.977Z,42.85
2023-05-22T23:15:13.590Z,43.03
2023-05-22T23:17:41.580Z,43.15
2023-05-22T23:20:09.902Z,42.96
2023-05-22T23:22:37.634Z,43.52
2023-05-22T23:25:06.137Z,43.14
2023-05-22T23:27:33.701Z,43.72
2023-05-22T23:30:01.505Z,43.19
2023-05-22T23:32:29.364Z,43.51
2023-05-22T23:34:57.030Z,43.64
2023-05-22T23:37:25.047Z,43.52
2023-05-22T23:39:52.944Z,43.78
2023-05-22T23:42:20.556Z,44.09
2023-05-22T23:44:48.307Z,43.84
2023-05-22T23:47:17.021Z,44.14
2023-05-22T23:49:45.521Z,44.29
2023-05-22T23:52:13.339Z,44.24
2023-05-22T23:54:40.954Z,44.31
2023-05-22T23:57:08.716Z,44.06
2023-05-22T23:59:36.330Z,45.18
